sensor_id;sensor_type;location;lat;lon;timestamp;P1;durP1;ratioP1;P2;durP2;ratioP2
55469;SDS011;41334;47.872;16.384;2023-06-10T00:02:07;6.10;;;3.78;;
55469;SDS011;41334;47.872;16.384;2023-06-10T00:07:11;5.57;;;3.55;;
55469;SDS011;41334;47.872;16.384;2023-06-10T00:12:13;5.90;;;3.88;;
55469;SDS011;41334;47.872;16.384;2023-06-10T00:17:14;5.82;;;3.08;;
55469;SDS011;41334;47.872;16.384;2023-06-10T00:22:16;5.85;;;3.55;;
55469;SDS011;41334;47.872;16.384;2023-06-10T00:27:18;6.47;;;3.58;;
55469;SDS011;41334;47.872;16.384;2023-06-10T00:32:20;5.30;;;3.40;;
55469;SDS011;41334;47.872;16.384;2023-06-10T00:37:22;9.50;;;3.47;;
55469;SDS011;41334;47.872;16.384;2023-06-10T00:42:24;5.53;;;3.58;;
55469;SDS011;41334;47.872;16.384;2023-06-10T00:47:28;5.53;;;3.70;;
55469;SDS011;41334;47.872;16.384;2023-06-10T00:52:30;5.45;;;3.60;;
55469;SDS011;41334;47.872;16.384;2023-06-10T00:57:32;7.13;;;3.33;;
55469;SDS011;41334;47.872;16.384;2023-06-10T01:02:34;8.55;;;3.85;;
55469;SDS011;41334;47.872;16.384;2023-06-10T01:12:49;8.15;;;3.45;;
55469;SDS011;41334;47.872;16.384;2023-06-10T01:17:59;5.65;;;2.88;;
55469;SDS011;41334;47.872;16.384;2023-06-10T01:23:01;5.88;;;3.08;;
55469;SDS011;41334;47.872;16.384;2023-06-10T01:28:07;4.88;;;2.83;;
55469;SDS011;41334;47.872;16.384;2023-06-10T01:33:10;4.95;;;3.03;;
55469;SDS011;41334;47.872;16.384;2023-06-10T01:38:13;3.67;;;2.38;;
55469;SDS011;41334;47.872;16.384;2023-06-10T01:43:16;6.05;;;2.45;;
55469;SDS011;41334;47.872;16.384;2023-06-10T01:48:17;3.50;;;2.38;;
55469;SDS011;41334;47.872;16.384;2023-06-10T01:53:20;5.03;;;3.03;;
55469;SDS011;41334;47.872;16.384;2023-06-10T01:58:22;9.35;;;2.75;;
55469;SDS011;41334;47.872;16.384;2023-06-10T02:03:23;4.50;;;2.58;;
55469;SDS011;41334;47.872;16.384;2023-06-10T02:08:25;3.55;;;2.53;;
55469;SDS011;41334;47.872;16.384;2023-06-10T02:13:29;4.43;;;2.28;;
55469;SDS011;41334;47.872;16.384;2023-06-10T02:18:31;6.60;;;2.17;;
55469;SDS011;41334;47.872;16.384;2023-06-10T02:23:33;5.47;;;2.58;;
55469;SDS011;41334;47.872;16.384;2023-06-10T02:28:38;3.28;;;2.20;;
55469;SDS011;41334;47.872;16.384;2023-06-10T02:33:39;5.40;;;1.77;;
55469;SDS011;41334;47.872;16.384;2023-06-10T02:38:42;2.45;;;2.05;;
55469;SDS011;41334;47.872;16.384;2023-06-10T02:43:44;2.78;;;1.98;;
55469;SDS011;41334;47.872;16.384;2023-06-10T02:48:46;3.00;;;1.50;;
55469;SDS011;41334;47.872;16.384;2023-06-10T02:53:54;3.10;;;1.48;;
55469;SDS011;41334;47.872;16.384;2023-06-10T02:58:56;5.13;;;1.40;;
55469;SDS011;41334;47.872;16.384;2023-06-10T03:04:00;3.28;;;1.70;;
55469;SDS011;41334;47.872;16.384;2023-06-10T03:09:02;3.90;;;1.90;;
55469;SDS011;41334;47.872;16.384;2023-06-10T03:14:06;2.40;;;1.60;;
55469;SDS011;41334;47.872;16.384;2023-06-10T03:19:08;2.53;;;1.65;;
55469;SDS011;41334;47.872;16.384;2023-06-10T03:24:12;5.25;;;1.70;;
55469;SDS011;41334;47.872;16.384;2023-06-10T03:29:14;2.97;;;1.60;;
55469;SDS011;41334;47.872;16.384;2023-06-10T03:34:16;2.72;;;1.48;;
55469;SDS011;41334;47.872;16.384;2023-06-10T03:39:18;4.15;;;1.48;;
55469;SDS011;41334;47.872;16.384;2023-06-10T03:44:21;3.08;;;1.73;;
55469;SDS011;41334;47.872;16.384;2023-06-10T03:49:24;3.10;;;1.75;;
55469;SDS011;41334;47.872;16.384;2023-06-10T03:54:30;1.95;;;1.30;;
55469;SDS011;41334;47.872;16.384;2023-06-10T03:59:33;2.85;;;1.80;;
55469;SDS011;41334;47.872;16.384;2023-06-10T04:04:35;3.90;;;2.13;;
55469;SDS011;41334;47.872;16.384;2023-06-10T04:09:38;2.35;;;1.55;;
55469;SDS011;41334;47.872;16.384;2023-06-10T04:14:40;3.67;;;1.92;;
55469;SDS011;41334;47.872;16.384;2023-06-10T04:19:45;6.55;;;2.22;;
55469;SDS011;41334;47.872;16.384;2023-06-10T04:24:47;4.32;;;2.40;;
55469;SDS011;41334;47.872;16.384;2023-06-10T04:29:49;4.00;;;2.67;;
55469;SDS011;41334;47.872;16.384;2023-06-10T04:34:51;7.22;;;2.70;;
55469;SDS011;41334;47.872;16.384;2023-06-10T04:39:53;5.07;;;2.70;;
55469;SDS011;41334;47.872;16.384;2023-06-10T04:44:55;6.88;;;3.00;;
55469;SDS011;41334;47.872;16.384;2023-06-10T04:49:58;4.78;;;2.70;;
55469;SDS011;41334;47.872;16.384;2023-06-10T04:55:00;5.32;;;3.15;;
55469;SDS011;41334;47.872;16.384;2023-06-10T05:00:02;8.25;;;4.38;;
55469;SDS011;41334;47.872;16.384;2023-06-10T05:05:07;5.15;;;3.22;;
55469;SDS011;41334;47.872;16.384;2023-06-10T05:10:10;7.00;;;4.20;;
55469;SDS011;41334;47.872;16.384;2023-06-10T05:15:13;6.70;;;4.07;;
55469;SDS011;41334;47.872;16.384;2023-06-10T05:20:15;8.63;;;4.43;;
55469;SDS011;41334;47.872;16.384;2023-06-10T05:25:16;7.68;;;4.32;;
55469;SDS011;41334;47.872;16.384;2023-06-10T05:30:18;9.80;;;3.75;;
55469;SDS011;41334;47.872;16.384;2023-06-10T05:35:20;6.70;;;4.50;;
55469;SDS011;41334;47.872;16.384;2023-06-10T05:40:22;7.80;;;5.20;;
55469;SDS011;41334;47.872;16.384;2023-06-10T05:45:23;2.88;;;1.80;;
55469;SDS011;41334;47.872;16.384;2023-06-10T05:50:25;2.88;;;1.98;;
55469;SDS011;41334;47.872;16.384;2023-06-10T05:55:27;8.55;;;5.47;;
55469;SDS011;41334;47.872;16.384;2023-06-10T06:00:29;8.50;;;4.45;;
55469;SDS011;41334;47.872;16.384;2023-06-10T06:05:30;8.00;;;5.32;;
55469;SDS011;41334;47.872;16.384;2023-06-10T06:10:36;10.27;;;5.05;;
55469;SDS011;41334;47.872;16.384;2023-06-10T06:15:38;8.50;;;5.28;;
55469;SDS011;41334;47.872;16.384;2023-06-10T06:20:39;8.00;;;5.13;;
55469;SDS011;41334;47.872;16.384;2023-06-10T06:25:41;7.55;;;4.57;;
55469;SDS011;41334;47.872;16.384;2023-06-10T06:30:43;7.22;;;3.85;;
55469;SDS011;41334;47.872;16.384;2023-06-10T06:35:47;8.52;;;4.72;;
55469;SDS011;41334;47.872;16.384;2023-06-10T06:40:49;8.50;;;5.65;;
55469;SDS011;41334;47.872;16.384;2023-06-10T06:45:51;7.93;;;5.75;;
55469;SDS011;41334;47.872;16.384;2023-06-10T06:50:52;11.02;;;6.63;;
55469;SDS011;41334;47.872;16.384;2023-06-10T06:55:54;9.73;;;5.38;;
55469;SDS011;41334;47.872;16.384;2023-06-10T07:00:56;9.80;;;7.20;;
55469;SDS011;41334;47.872;16.384;2023-06-10T07:05:59;8.48;;;5.25;;
55469;SDS011;41334;47.872;16.384;2023-06-10T07:11:01;5.55;;;2.45;;
55469;SDS011;41334;47.872;16.384;2023-06-10T07:16:03;2.67;;;1.85;;
55469;SDS011;41334;47.872;16.384;2023-06-10T07:21:05;4.47;;;2.70;;
55469;SDS011;41334;47.872;16.384;2023-06-10T07:26:07;11.25;;;7.07;;
55469;SDS011;41334;47.872;16.384;2023-06-10T07:31:09;7.20;;;4.57;;
55469;SDS011;41334;47.872;16.384;2023-06-10T07:36:11;9.75;;;6.13;;
55469;SDS011;41334;47.872;16.384;2023-06-10T07:41:13;6.63;;;4.57;;
55469;SDS011;41334;47.872;16.384;2023-06-10T07:46:15;12.30;;;5.85;;
55469;SDS011;41334;47.872;16.384;2023-06-10T07:51:17;12.02;;;5.63;;
55469;SDS011;41334;47.872;16.384;2023-06-10T07:56:19;15.93;;;7.13;;
55469;SDS011;41334;47.872;16.384;2023-06-10T08:01:23;10.18;;;6.45;;
55469;SDS011;41334;47.872;16.384;2023-06-10T08:06:25;4.10;;;2.17;;
55469;SDS011;41334;47.872;16.384;2023-06-10T08:11:27;12.25;;;7.60;;
55469;SDS011;41334;47.872;16.384;2023-06-10T08:16:32;14.07;;;7.43;;
55469;SDS011;41334;47.872;16.384;2023-06-10T08:21:33;12.02;;;7.13;;
55469;SDS011;41334;47.872;16.384;2023-06-10T08:26:35;2.88;;;2.15;;
55469;SDS011;41334;47.872;16.384;2023-06-10T08:31:37;10.77;;;7.05;;
55469;SDS011;41334;47.872;16.384;2023-06-10T08:36:42;10.10;;;5.45;;
55469;SDS011;41334;47.872;16.384;2023-06-10T08:41:46;7.55;;;4.43;;
55469;SDS011;41334;47.872;16.384;2023-06-10T08:46:50;4.38;;;3.03;;
55469;SDS011;41334;47.872;16.384;2023-06-10T08:51:58;10.57;;;6.07;;
55469;SDS011;41334;47.872;16.384;2023-06-10T08:56:59;8.25;;;4.30;;
55469;SDS011;41334;47.872;16.384;2023-06-10T09:02:04;16.30;;;7.95;;
55469;SDS011;41334;47.872;16.384;2023-06-10T09:07:06;10.93;;;7.10;;
55469;SDS011;41334;47.872;16.384;2023-06-10T09:12:08;14.45;;;7.63;;
55469;SDS011;41334;47.872;16.384;2023-06-10T09:17:10;9.73;;;6.25;;
55469;SDS011;41334;47.872;16.384;2023-06-10T09:22:12;9.80;;;6.40;;
55469;SDS011;41334;47.872;16.384;2023-06-10T09:27:13;14.35;;;8.48;;
55469;SDS011;41334;47.872;16.384;2023-06-10T09:32:16;10.82;;;6.57;;
55469;SDS011;41334;47.872;16.384;2023-06-10T09:37:24;13.18;;;5.32;;
55469;SDS011;41334;47.872;16.384;2023-06-10T09:42:26;14.05;;;8.30;;
55469;SDS011;41334;47.872;16.384;2023-06-10T09:47:28;10.63;;;6.00;;
55469;SDS011;41334;47.872;16.384;2023-06-10T09:52:30;13.40;;;7.57;;
55469;SDS011;41334;47.872;16.384;2023-06-10T09:57:32;13.30;;;6.82;;
55469;SDS011;41334;47.872;16.384;2023-06-10T10:02:46;10.43;;;7.22;;
55469;SDS011;41334;47.872;16.384;2023-06-10T10:07:49;9.50;;;6.70;;
55469;SDS011;41334;47.872;16.384;2023-06-10T10:12:53;10.32;;;6.57;;
55469;SDS011;41334;47.872;16.384;2023-06-10T10:23:03;10.50;;;7.07;;
55469;SDS011;41334;47.872;16.384;2023-06-10T10:28:08;7.82;;;5.18;;
55469;SDS011;41334;47.872;16.384;2023-06-10T10:33:27;10.25;;;7.45;;
55469;SDS011;41334;47.872;16.384;2023-06-10T10:38:32;10.15;;;6.93;;
55469;SDS011;41334;47.872;16.384;2023-06-10T10:43:34;9.80;;;6.68;;
55469;SDS011;41334;47.872;16.384;2023-06-10T10:48:37;9.13;;;7.10;;
55469;SDS011;41334;47.872;16.384;2023-06-10T10:53:39;8.90;;;5.38;;
55469;SDS011;41334;47.872;16.384;2023-06-10T10:58:42;8.48;;;6.20;;
55469;SDS011;41334;47.872;16.384;2023-06-10T11:03:44;9.63;;;6.28;;
55469;SDS011;41334;47.872;16.384;2023-06-10T11:08:49;9.52;;;6.20;;
55469;SDS011;41334;47.872;16.384;2023-06-10T11:19:28;6.88;;;5.20;;
55469;SDS011;41334;47.872;16.384;2023-06-10T11:24:33;2.95;;;1.88;;
55469;SDS011;41334;47.872;16.384;2023-06-10T11:29:34;10.45;;;5.38;;
55469;SDS011;41334;47.872;16.384;2023-06-10T11:34:36;11.88;;;5.53;;
55469;SDS011;41334;47.872;16.384;2023-06-10T11:39:38;7.90;;;5.07;;
55469;SDS011;41334;47.872;16.384;2023-06-10T11:44:46;5.68;;;3.95;;
55469;SDS011;41334;47.872;16.384;2023-06-10T11:49:57;7.40;;;4.82;;
55469;SDS011;41334;47.872;16.384;2023-06-10T11:55:00;8.65;;;4.32;;
55469;SDS011;41334;47.872;16.384;2023-06-10T12:00:05;6.47;;;4.30;;
55469;SDS011;41334;47.872;16.384;2023-06-10T12:05:13;6.45;;;4.65;;
55469;SDS011;41334;47.872;16.384;2023-06-10T12:10:15;6.25;;;4.43;;
55469;SDS011;41334;47.872;16.384;2023-06-10T12:15:28;7.43;;;5.10;;
55469;SDS011;41334;47.872;16.384;2023-06-10T12:20:31;8.77;;;4.63;;
55469;SDS011;41334;47.872;16.384;2023-06-10T12:25:54;3.80;;;2.92;;
55469;SDS011;41334;47.872;16.384;2023-06-10T12:31:08;10.00;;;4.95;;
55469;SDS011;41334;47.872;16.384;2023-06-10T12:36:15;7.82;;;4.40;;
55469;SDS011;41334;47.872;16.384;2023-06-10T12:41:18;5.40;;;3.45;;
55469;SDS011;41334;47.872;16.384;2023-06-10T12:51:50;5.63;;;4.55;;
55469;SDS011;41334;47.872;16.384;2023-06-10T12:56:55;5.10;;;3.75;;
55469;SDS011;41334;47.872;16.384;2023-06-10T13:01:59;4.88;;;3.67;;
55469;SDS011;41334;47.872;16.384;2023-06-10T13:07:01;5.68;;;3.80;;
55469;SDS011;41334;47.872;16.384;2023-06-10T13:12:03;3.55;;;2.50;;
55469;SDS011;41334;47.872;16.384;2023-06-10T13:17:05;4.95;;;3.88;;
55469;SDS011;41334;47.872;16.384;2023-06-10T13:22:08;7.20;;;4.28;;
55469;SDS011;41334;47.872;16.384;2023-06-10T13:27:09;9.43;;;4.70;;
55469;SDS011;41334;47.872;16.384;2023-06-10T13:32:11;7.38;;;4.22;;
55469;SDS011;41334;47.872;16.384;2023-06-10T13:37:13;7.22;;;4.22;;
55469;SDS011;41334;47.872;16.384;2023-06-10T13:42:15;5.90;;;4.18;;
55469;SDS011;41334;47.872;16.384;2023-06-10T13:47:16;6.20;;;3.92;;
55469;SDS011;41334;47.872;16.384;2023-06-10T13:52:19;6.68;;;4.32;;
55469;SDS011;41334;47.872;16.384;2023-06-10T13:57:21;7.82;;;4.40;;
55469;SDS011;41334;47.872;16.384;2023-06-10T14:02:23;6.80;;;4.30;;
55469;SDS011;41334;47.872;16.384;2023-06-10T14:07:25;6.57;;;4.38;;
55469;SDS011;41334;47.872;16.384;2023-06-10T14:12:27;6.57;;;3.88;;
55469;SDS011;41334;47.872;16.384;2023-06-10T14:17:29;7.45;;;4.18;;
55469;SDS011;41334;47.872;16.384;2023-06-10T14:22:31;5.15;;;3.28;;
55469;SDS011;41334;47.872;16.384;2023-06-10T14:27:33;3.42;;;2.17;;
55469;SDS011;41334;47.872;16.384;2023-06-10T14:32:34;6.10;;;3.13;;
55469;SDS011;41334;47.872;16.384;2023-06-10T14:37:36;3.35;;;2.50;;
55469;SDS011;41334;47.872;16.384;2023-06-10T14:42:39;4.90;;;3.35;;
55469;SDS011;41334;47.872;16.384;2023-06-10T14:47:41;5.57;;;3.58;;
55469;SDS011;41334;47.872;16.384;2023-06-10T14:52:43;4.07;;;3.15;;
55469;SDS011;41334;47.872;16.384;2023-06-10T14:57:44;5.82;;;3.60;;
55469;SDS011;41334;47.872;16.384;2023-06-10T15:02:46;5.88;;;3.60;;
55469;SDS011;41334;47.872;16.384;2023-06-10T15:07:49;4.53;;;3.15;;
55469;SDS011;41334;47.872;16.384;2023-06-10T15:12:51;3.70;;;2.47;;
55469;SDS011;41334;47.872;16.384;2023-06-10T15:17:57;4.47;;;3.15;;
55469;SDS011;41334;47.872;16.384;2023-06-10T15:23:00;4.70;;;3.30;;
55469;SDS011;41334;47.872;16.384;2023-06-10T15:28:02;5.30;;;3.55;;
55469;SDS011;41334;47.872;16.384;2023-06-10T15:33:06;5.80;;;3.60;;
55469;SDS011;41334;47.872;16.384;2023-06-10T15:38:09;5.00;;;3.92;;
55469;SDS011;41334;47.872;16.384;2023-06-10T15:43:11;6.03;;;3.70;;
55469;SDS011;41334;47.872;16.384;2023-06-10T15:48:14;6.45;;;3.83;;
55469;SDS011;41334;47.872;16.384;2023-06-10T15:53:16;7.13;;;4.20;;
55469;SDS011;41334;47.872;16.384;2023-06-10T15:58:18;5.00;;;3.38;;
55469;SDS011;41334;47.872;16.384;2023-06-10T16:03:20;4.57;;;3.33;;
55469;SDS011;41334;47.872;16.384;2023-06-10T16:08:22;6.65;;;3.58;;
55469;SDS011;41334;47.872;16.384;2023-06-10T16:13:23;6.50;;;3.25;;
55469;SDS011;41334;47.872;16.384;2023-06-10T16:18:25;9.77;;;3.65;;
55469;SDS011;41334;47.872;16.384;2023-06-10T16:23:27;6.32;;;3.33;;
55469;SDS011;41334;47.872;16.384;2023-06-10T16:28:29;6.85;;;3.92;;
55469;SDS011;41334;47.872;16.384;2023-06-10T16:33:31;6.57;;;4.70;;
55469;SDS011;41334;47.872;16.384;2023-06-10T16:38:33;5.85;;;4.30;;
55469;SDS011;41334;47.872;16.384;2023-06-10T16:43:35;2.30;;;1.65;;
55469;SDS011;41334;47.872;16.384;2023-06-10T16:48:37;5.10;;;3.55;;
55469;SDS011;41334;47.872;16.384;2023-06-10T16:53:38;4.25;;;2.17;;
55469;SDS011;41334;47.872;16.384;2023-06-10T16:58:40;11.27;;;3.38;;
55469;SDS011;41334;47.872;16.384;2023-06-10T17:03:42;4.47;;;1.75;;
55469;SDS011;41334;47.872;16.384;2023-06-10T17:08:44;2.50;;;1.45;;
55469;SDS011;41334;47.872;16.384;2023-06-10T17:13:46;6.30;;;3.60;;
55469;SDS011;41334;47.872;16.384;2023-06-10T17:18:48;5.70;;;4.05;;
55469;SDS011;41334;47.872;16.384;2023-06-10T17:23:51;5.05;;;3.70;;
55469;SDS011;41334;47.872;16.384;2023-06-10T17:28:53;5.30;;;3.45;;
55469;SDS011;41334;47.872;16.384;2023-06-10T17:33:55;6.40;;;3.72;;
55469;SDS011;41334;47.872;16.384;2023-06-10T17:38:56;7.20;;;3.38;;
55469;SDS011;41334;47.872;16.384;2023-06-10T17:43:58;2.92;;;1.73;;
55469;SDS011;41334;47.872;16.384;2023-06-10T17:49:00;6.32;;;2.58;;
55469;SDS011;41334;47.872;16.384;2023-06-10T17:54:02;5.68;;;2.70;;
55469;SDS011;41334;47.872;16.384;2023-06-10T17:59:04;5.43;;;3.35;;
55469;SDS011;41334;47.872;16.384;2023-06-10T18:04:06;8.68;;;3.00;;
55469;SDS011;41334;47.872;16.384;2023-06-10T18:09:08;6.00;;;3.13;;
55469;SDS011;41334;47.872;16.384;2023-06-10T18:14:13;4.88;;;2.92;;
55469;SDS011;41334;47.872;16.384;2023-06-10T18:19:15;4.47;;;2.75;;
55469;SDS011;41334;47.872;16.384;2023-06-10T18:24:17;5.03;;;3.35;;
55469;SDS011;41334;47.872;16.384;2023-06-10T18:29:19;4.07;;;2.47;;
55469;SDS011;41334;47.872;16.384;2023-06-10T18:34:20;4.90;;;3.00;;
55469;SDS011;41334;47.872;16.384;2023-06-10T18:39:22;4.63;;;3.17;;
55469;SDS011;41334;47.872;16.384;2023-06-10T18:44:24;5.57;;;3.15;;
55469;SDS011;41334;47.872;16.384;2023-06-10T18:49:26;4.20;;;3.00;;
55469;SDS011;41334;47.872;16.384;2023-06-10T18:54:28;4.07;;;2.58;;
55469;SDS011;41334;47.872;16.384;2023-06-10T18:59:29;4.18;;;2.67;;
55469;SDS011;41334;47.872;16.384;2023-06-10T19:04:31;4.53;;;3.00;;
55469;SDS011;41334;47.872;16.384;2023-06-10T19:09:33;4.85;;;3.20;;
55469;SDS011;41334;47.872;16.384;2023-06-10T19:14:35;5.57;;;2.80;;
55469;SDS011;41334;47.872;16.384;2023-06-10T19:19:39;4.65;;;3.00;;
55469;SDS011;41334;47.872;16.384;2023-06-10T19:24:40;3.50;;;2.72;;
55469;SDS011;41334;47.872;16.384;2023-06-10T19:29:44;4.43;;;2.88;;
55469;SDS011;41334;47.872;16.384;2023-06-10T19:34:46;5.40;;;3.08;;
55469;SDS011;41334;47.872;16.384;2023-06-10T19:39:47;5.88;;;3.30;;
55469;SDS011;41334;47.872;16.384;2023-06-10T19:44:49;4.93;;;3.35;;
55469;SDS011;41334;47.872;16.384;2023-06-10T19:49:53;4.43;;;2.80;;
55469;SDS011;41334;47.872;16.384;2023-06-10T19:54:55;5.07;;;3.40;;
55469;SDS011;41334;47.872;16.384;2023-06-10T19:59:56;4.07;;;3.00;;
55469;SDS011;41334;47.872;16.384;2023-06-10T20:04:58;6.38;;;3.38;;
55469;SDS011;41334;47.872;16.384;2023-06-10T20:10:00;4.13;;;2.92;;
55469;SDS011;41334;47.872;16.384;2023-06-10T20:15:02;5.00;;;3.30;;
55469;SDS011;41334;47.872;16.384;2023-06-10T20:20:04;7.57;;;3.60;;
55469;SDS011;41334;47.872;16.384;2023-06-10T20:25:06;5.95;;;3.28;;
55469;SDS011;41334;47.872;16.384;2023-06-10T20:30:08;5.78;;;3.10;;
55469;SDS011;41334;47.872;16.384;2023-06-10T20:35:10;6.13;;;3.60;;
55469;SDS011;41334;47.872;16.384;2023-06-10T20:40:12;4.85;;;3.13;;
55469;SDS011;41334;47.872;16.384;2023-06-10T20:45:15;4.75;;;3.28;;
55469;SDS011;41334;47.872;16.384;2023-06-10T20:50:17;6.90;;;3.33;;
55469;SDS011;41334;47.872;16.384;2023-06-10T20:55:19;6.05;;;3.47;;
55469;SDS011;41334;47.872;16.384;2023-06-10T21:00:21;5.60;;;3.63;;
55469;SDS011;41334;47.872;16.384;2023-06-10T21:05:23;5.53;;;4.03;;
55469;SDS011;41334;47.872;16.384;2023-06-10T21:10:24;5.07;;;3.67;;
55469;SDS011;41334;47.872;16.384;2023-06-10T21:15:26;5.60;;;3.25;;
55469;SDS011;41334;47.872;16.384;2023-06-10T21:20:28;6.07;;;3.63;;
55469;SDS011;41334;47.872;16.384;2023-06-10T21:25:30;5.15;;;3.80;;
55469;SDS011;41334;47.872;16.384;2023-06-10T21:30:31;8.55;;;4.03;;
55469;SDS011;41334;47.872;16.384;2023-06-10T21:35:33;4.47;;;3.60;;
55469;SDS011;41334;47.872;16.384;2023-06-10T21:40:36;5.72;;;3.83;;
55469;SDS011;41334;47.872;16.384;2023-06-10T21:45:38;5.78;;;3.50;;
55469;SDS011;41334;47.872;16.384;2023-06-10T21:50:39;5.20;;;4.00;;
55469;SDS011;41334;47.872;16.384;2023-06-10T21:55:41;11.10;;;4.65;;
55469;SDS011;41334;47.872;16.384;2023-06-10T22:00:43;7.43;;;3.97;;
55469;SDS011;41334;47.872;16.384;2023-06-10T22:05:45;7.93;;;4.25;;
55469;SDS011;41334;47.872;16.384;2023-06-10T22:10:47;6.00;;;3.80;;
55469;SDS011;41334;47.872;16.384;2023-06-10T22:15:49;6.78;;;4.13;;
55469;SDS011;41334;47.872;16.384;2023-06-10T22:20:51;8.60;;;3.70;;
55469;SDS011;41334;47.872;16.384;2023-06-10T22:25:53;5.38;;;3.53;;
55469;SDS011;41334;47.872;16.384;2023-06-10T22:30:55;5.13;;;3.28;;
55469;SDS011;41334;47.872;16.384;2023-06-10T22:35:57;6.22;;;3.33;;
55469;SDS011;41334;47.872;16.384;2023-06-10T22:40:58;9.35;;;3.67;;
55469;SDS011;41334;47.872;16.384;2023-06-10T22:46:00;8.32;;;5.03;;
55469;SDS011;41334;47.872;16.384;2023-06-10T22:51:02;5.35;;;3.90;;
55469;SDS011;41334;47.872;16.384;2023-06-10T22:56:04;6.93;;;4.05;;
55469;SDS011;41334;47.872;16.384;2023-06-10T23:01:06;4.82;;;3.70;;
55469;SDS011;41334;47.872;16.384;2023-06-10T23:06:08;3.90;;;2.40;;
55469;SDS011;41334;47.872;16.384;2023-06-10T23:11:10;7.32;;;5.25;;
55469;SDS011;41334;47.872;16.384;2023-06-10T23:16:12;9.02;;;3.38;;
55469;SDS011;41334;47.872;16.384;2023-06-10T23:21:14;4.95;;;1.98;;
55469;SDS011;41334;47.872;16.384;2023-06-10T23:26:16;6.70;;;3.72;;
55469;SDS011;41334;47.872;16.384;2023-06-10T23:31:18;5.28;;;3.30;;
55469;SDS011;41334;47.872;16.384;2023-06-10T23:36:20;7.47;;;3.83;;
55469;SDS011;41334;47.872;16.384;2023-06-10T23:41:21;5.55;;;3.42;;
55469;SDS011;41334;47.872;16.384;2023-06-10T23:46:24;5.85;;;3.95;;
55469;SDS011;41334;47.872;16.384;2023-06-10T23:51:26;7.30;;;4.07;;
55469;SDS011;41334;47.872;16.384;2023-06-10T23:56:28;6.40;;;3.88;;
